Hembadoo II — 9H9788 — position and weather

sailwx.info

Track history (hours):
 
Tides and Currents Weather Stations Pressure Air Temp Water Temp Dewpoint Dewpoint Depression Visibility Wind Speed Wind Dir Waves Ship Positions

Hembadoo II

Last reported at 2014-Jun-15 08:06 UTC. Time now 2014-Dec-22 09:53 UTC.
Position N 37°35' E 025°04'.
Warning: this ship's position is months out of date.

Length 16 m.

Type: Sailing vessel. MMSI: 248491000.

Date/timePositionNaut miles runAvg speedWind from/ knotsBaromVisibWave heightAir tempDewpointWater temp
2014-Jun-15 08:06N 37°35' E 025°04'3 6.4
2014-Jun-15 07:33N 37°33' E 025°07'  
2014-Jun-12 08:31N 37°32' E 025°10'3 3.2
2014-Jun-12 07:30N 37°29' E 025°12'6 6.3
2014-Jun-12 06:33N 37°25' E 025°17'3 0.1
2014-Jun-11 13:32N 37°24' E 025°20'6 6.3
2014-Jun-11 12:33N 37°22' E 025°27'6 6.3
2014-Jun-11 11:32N 37°19' E 025°34'7 5.7
2014-Jun-11 10:18N 37°18' E 025°43'3 3.4
2014-Jun-11 09:30N 37°16' E 025°44'7 4.8
2014-Jun-11 08:06N 37°09' E 025°42'3 5.1
2014-Jun-11 07:34N 37°09' E 025°46'5 0.3
2014-Jun-10 13:05N 37°07' E 025°52'4 6.6
2014-Jun-10 12:26N 37°07' E 025°57'6 6.7
2014-Jun-10 11:32N 37°07' E 026°05'7 6.9
2014-Jun-10 10:29N 37°07' E 026°14'9 6.5
2014-Jun-10 09:09N 37°07' E 026°25'  
Track history (hours):
 
Tides and Currents Weather Stations Pressure Air Temp Water Temp Dewpoint Dewpoint Depression Visibility Wind Speed Wind Dir Waves Ship Positions

Hembadoo II

Last reported at 2014-Jun-15 08:06 UTC. Time now 2014-Dec-22 09:53 UTC.
Position N 37°35' E 025°04'.
Warning: this ship's position is months out of date.

Length 16 m.

Type: Sailing vessel. MMSI: 248491000.

Date/timePositionNaut miles runAvg speedWind from/ knotsBaromVisibWave heightAir tempDewpointWater temp
2014-Jun-15 08:06N 37°35' E 025°04'3 6.4
2014-Jun-15 07:33N 37°33' E 025°07'  
2014-Jun-12 08:31N 37°32' E 025°10'3 3.2
2014-Jun-12 07:30N 37°29' E 025°12'6 6.3
2014-Jun-12 06:33N 37°25' E 025°17'3 0.1
2014-Jun-11 13:32N 37°24' E 025°20'6 6.3
2014-Jun-11 12:33N 37°22' E 025°27'6 6.3
2014-Jun-11 11:32N 37°19' E 025°34'7 5.7
2014-Jun-11 10:18N 37°18' E 025°43'3 3.4
2014-Jun-11 09:30N 37°16' E 025°44'7 4.8
2014-Jun-11 08:06N 37°09' E 025°42'3 5.1
2014-Jun-11 07:34N 37°09' E 025°46'5 0.3
2014-Jun-10 13:05N 37°07' E 025°52'4 6.6
2014-Jun-10 12:26N 37°07' E 025°57'6 6.7
2014-Jun-10 11:32N 37°07' E 026°05'7 6.9
2014-Jun-10 10:29N 37°07' E 026°14'9 6.5
2014-Jun-10 09:09N 37°07' E 026°25'  

Dump ship's entire track history